Terminal Aerodrome Forecast
Issued by NWS

Home | Current Version | Previous Version | Text Only | Print | Product List | Glossary On
Versions: 1 2 3 4 5 6 7 8 9 10 11 12 13 14 15 16 17 18 19 20 21 22 23
000
FTUS43 KGLD 252339
TAFMCK
TAF
KMCK 252339Z 2600/2624 09005KT P6SM SKC
      TEMPO 2605/2606 5SM BR
     FM260600 11006KT 2SM BR BKN040
     FM260700 12005KT 1SM BR BKN015
     FM260900 10004KT 1/2SM FG BKN003
     FM261600 08004KT 3SM BR BKN005
     FM261700 10006KT P6SM BKN035=

USA.gov is the U.S. government's official web portal to all federal, state and local government web resources and services.